Time;durP1;ratioP1;P1;durP2;ratioP2;P2;SDS_P1;SDS_P2;PMS_P1;PMS_P2;Temp;Humidity;BMP_temperature;BMP_pressure;BME280_temperature;BME280_humidity;BME280_pressure;Samples;Min_cycle;Max_cycle;Signal;HPM_P1;HPM_P2
2023/12/07 00:00:12;;;;;;;227.97;55.43;;;0.80;99.90;;;;;;5094955;28;20543;-50
2023/12/07 00:02:38;;;;;;;225.20;54.50;;;0.90;99.90;;;;;;5095075;28;20174;-50
2023/12/07 00:05:04;;;;;;;231.87;58.30;;;0.80;99.90;;;;;;5097108;28;20182;-50
2023/12/07 00:07:29;;;;;;;207.80;54.37;;;0.80;99.90;;;;;;5111974;28;20190;-50
2023/12/07 00:09:55;;;;;;;193.20;52.40;;;0.90;99.90;;;;;;5115094;28;20415;-49
2023/12/07 00:12:20;;;;;;;211.77;55.90;;;0.80;99.90;;;;;;5114712;28;20177;-50
2023/12/07 00:14:46;;;;;;;204.13;52.50;;;0.80;99.90;;;;;;5115000;28;20227;-50
2023/12/07 00:17:12;;;;;;;191.17;52.23;;;0.80;99.90;;;;;;5114927;28;20180;-50
2023/12/07 00:19:37;;;;;;;192.63;53.57;;;0.80;99.90;;;;;;5115075;28;20177;-50
2023/12/07 00:22:03;;;;;;;196.77;53.40;;;0.80;99.90;;;;;;5114886;28;20184;-50
2023/12/07 00:24:29;;;;;;;185.10;53.30;;;0.80;99.90;;;;;;5114474;28;20208;-50
2023/12/07 00:26:54;;;;;;;192.30;52.20;;;0.80;99.90;;;;;;5114775;28;20215;-50
2023/12/07 00:29:20;;;;;;;183.93;51.87;;;0.80;99.90;;;;;;5114927;28;20178;-50
2023/12/07 00:31:45;;;;;;;207.67;54.00;;;0.80;99.90;;;;;;5114538;28;20222;-50
2023/12/07 00:34:11;;;;;;;207.70;52.23;;;0.80;99.90;;;;;;5114373;28;20317;-50
2023/12/07 00:36:36;;;;;;;205.93;56.47;;;0.80;99.90;;;;;;5114822;28;20202;-49
2023/12/07 00:39:04;;;;;;;218.60;52.13;;;0.80;99.90;;;;;;5114615;28;20181;-50
2023/12/07 00:41:29;;;;;;;203.63;56.00;;;0.80;99.90;;;;;;5114673;28;20181;-50
2023/12/07 00:43:55;;;;;;;200.37;52.77;;;0.80;99.90;;;;;;5114466;28;20465;-50
2023/12/07 00:46:20;;;;;;;229.90;57.10;;;0.80;99.90;;;;;;5114245;28;20174;-50
2023/12/07 00:48:46;;;;;;;206.50;52.60;;;0.80;99.90;;;;;;5114355;28;20272;-50
2023/12/07 00:51:11;;;;;;;200.07;54.07;;;0.90;99.90;;;;;;5114393;28;20192;-50
2023/12/07 00:53:38;;;;;;;205.40;54.97;;;0.90;99.90;;;;;;5114300;28;20622;-50
2023/12/07 00:56:04;;;;;;;197.23;54.87;;;0.90;99.90;;;;;;5114684;28;20640;-50
2023/12/07 00:58:29;;;;;;;224.30;54.63;;;0.90;99.90;;;;;;5114481;28;20423;-50
2023/12/07 01:00:55;;;;;;;206.87;53.10;;;0.90;99.90;;;;;;5114351;28;20411;-50
2023/12/07 01:03:20;;;;;;;192.87;52.40;;;0.80;99.90;;;;;;5114225;28;20208;-50
2023/12/07 01:05:46;;;;;;;174.93;51.03;;;0.80;99.90;;;;;;5114126;28;20249;-50
2023/12/07 01:08:12;;;;;;;209.70;55.50;;;0.80;99.90;;;;;;5114088;28;20191;-50
2023/12/07 01:10:37;;;;;;;186.03;52.00;;;0.80;99.90;;;;;;5113882;28;20232;-50
2023/12/07 01:13:03;;;;;;;212.73;53.40;;;0.90;99.90;;;;;;5114069;28;20183;-50
2023/12/07 01:15:28;;;;;;;213.13;54.27;;;0.90;99.90;;;;;;5114152;28;20176;-50
2023/12/07 01:17:54;;;;;;;212.27;53.20;;;0.80;99.90;;;;;;5114158;28;20191;-49
2023/12/07 01:20:19;;;;;;;193.23;53.53;;;0.90;99.90;;;;;;5113737;28;20182;-50
2023/12/07 01:22:45;;;;;;;186.73;49.63;;;0.90;99.90;;;;;;5113885;28;20235;-50
2023/12/07 01:25:12;;;;;;;204.27;53.70;;;0.80;99.90;;;;;;5113824;28;20223;-50
2023/12/07 01:27:37;;;;;;;167.90;49.00;;;0.80;99.90;;;;;;5114231;28;20434;-50
2023/12/07 01:30:03;;;;;;;205.27;51.57;;;0.80;99.90;;;;;;5113684;28;20429;-50
2023/12/07 01:32:30;;;;;;;200.97;51.50;;;0.80;99.90;;;;;;5113882;28;20531;-50
2023/12/07 01:34:55;;;;;;;205.80;51.80;;;0.80;99.90;;;;;;5113524;28;20406;-50
2023/12/07 01:37:21;;;;;;;179.07;49.60;;;0.80;99.90;;;;;;5113707;28;20778;-50
2023/12/07 01:39:46;;;;;;;218.90;55.13;;;0.80;99.90;;;;;;5113688;28;20583;-50
2023/12/07 01:42:12;;;;;;;202.53;49.97;;;0.80;99.90;;;;;;5113957;28;20180;-50
2023/12/07 01:44:38;;;;;;;196.80;49.90;;;0.80;99.90;;;;;;5114803;28;20258;-49
2023/12/07 01:47:06;;;;;;;210.77;51.37;;;0.80;99.90;;;;;;5117732;28;20191;-50
2023/12/07 01:49:32;;;;;;;212.33;53.20;;;0.80;99.90;;;;;;5117670;28;20418;-50
2023/12/07 01:51:57;;;;;;;215.80;52.10;;;0.80;99.90;;;;;;5118046;28;20411;-49
2023/12/07 01:54:23;;;;;;;192.00;48.17;;;0.80;99.90;;;;;;5117632;28;20787;-50
2023/12/07 01:56:50;;;;;;;226.70;55.53;;;0.80;99.90;;;;;;5117972;28;20222;-50
2023/12/07 01:59:16;;;;;;;220.00;52.10;;;0.90;99.90;;;;;;5117497;28;20183;-50
2023/12/07 02:01:42;;;;;;;221.13;51.57;;;0.90;99.90;;;;;;5117660;28;20483;-50
2023/12/07 02:04:09;;;;;;;214.70;53.00;;;0.80;99.90;;;;;;5117694;28;20204;-50
2023/12/07 02:06:35;;;;;;;225.53;56.13;;;0.80;99.90;;;;;;5117542;28;20565;-50
2023/12/07 02:09:01;;;;;;;204.00;52.30;;;0.80;99.90;;;;;;5117515;28;20452;-50
2023/12/07 02:11:27;;;;;;;224.20;53.47;;;0.90;99.90;;;;;;5117512;28;20177;-49
2023/12/07 02:13:55;;;;;;;197.50;50.30;;;0.90;99.90;;;;;;5117588;28;20769;-49
2023/12/07 02:16:44;;;;;;;195.30;49.93;;;0.90;99.90;;;;;;5117535;28;20189;-50
2023/12/07 02:19:47;;;;;;;194.97;53.10;;;0.90;99.90;;;;;;5117662;28;20410;-50
2023/12/07 02:22:35;;;;;;;183.87;49.40;;;0.90;99.90;;;;;;5117155;28;20454;-50
2023/12/07 02:25:09;;;;;;;187.00;52.17;;;0.90;99.90;;;;;;5116375;28;21052;-49
2023/12/07 02:27:40;;;;;;;193.70;52.87;;;0.90;99.90;;;;;;5116900;28;20421;-50
2023/12/07 02:30:07;;;;;;;195.50;52.67;;;0.90;99.90;;;;;;5117400;28;20422;-49
2023/12/07 02:32:33;;;;;;;211.27;52.83;;;0.90;99.90;;;;;;5117131;28;20500;-50
2023/12/07 02:34:59;;;;;;;175.63;50.03;;;0.90;99.90;;;;;;5117428;28;20769;-50
2023/12/07 02:37:28;;;;;;;173.77;51.30;;;0.90;99.90;;;;;;5117223;28;20418;-50
2023/12/07 02:39:55;;;;;;;200.47;50.53;;;0.90;99.90;;;;;;5117086;28;20415;-50
2023/12/07 02:42:22;;;;;;;178.70;50.50;;;1.00;99.90;;;;;;5116855;28;20418;-50
2023/12/07 02:44:51;;;;;;;163.80;48.97;;;1.00;99.90;;;;;;5116838;28;20466;-49
2023/12/07 02:47:17;;;;;;;171.97;49.80;;;1.00;99.90;;;;;;5116492;28;20418;-50
2023/12/07 02:49:42;;;;;;;161.40;48.57;;;1.00;99.90;;;;;;5116689;28;20406;-50
2023/12/07 02:52:08;;;;;;;168.33;50.50;;;1.00;99.90;;;;;;5116574;28;20617;-50
2023/12/07 02:54:33;;;;;;;160.97;48.27;;;1.00;99.90;;;;;;5116509;28;20689;-50
2023/12/07 02:56:59;;;;;;;175.70;49.77;;;1.00;99.90;;;;;;5116349;28;20630;-49
2023/12/07 02:59:25;;;;;;;160.57;50.33;;;1.00;99.90;;;;;;5116796;28;20614;-50
2023/12/07 03:01:50;;;;;;;149.00;47.03;;;1.00;99.90;;;;;;5116242;28;20182;-50
2023/12/07 03:04:16;;;;;;;165.03;49.13;;;1.10;99.90;;;;;;5116180;28;20220;-49
2023/12/07 03:06:41;;;;;;;171.70;47.17;;;1.00;99.90;;;;;;5115925;28;20240;-49
2023/12/07 03:09:07;;;;;;;147.37;47.17;;;1.00;99.90;;;;;;5116273;28;20230;-49
2023/12/07 03:11:32;;;;;;;171.10;49.07;;;1.00;99.90;;;;;;5116531;28;20256;-50
2023/12/07 03:13:58;;;;;;;151.23;48.20;;;1.00;99.90;;;;;;5116401;28;20176;-50
2023/12/07 03:16:24;;;;;;;169.73;48.77;;;1.00;99.90;;;;;;5116258;28;20653;-49
2023/12/07 03:18:49;;;;;;;144.93;45.13;;;1.10;99.90;;;;;;5116121;28;20628;-49
2023/12/07 03:21:15;;;;;;;146.70;47.40;;;1.10;99.90;;;;;;5115976;28;20649;-50
2023/12/07 03:23:40;;;;;;;159.90;48.33;;;1.10;99.90;;;;;;5115664;28;20212;-49
2023/12/07 03:26:06;;;;;;;145.20;47.50;;;1.10;99.90;;;;;;5115853;28;20225;-49
2023/12/07 03:28:31;;;;;;;147.67;49.00;;;1.10;99.90;;;;;;5115896;28;20318;-49
2023/12/07 03:30:57;;;;;;;152.43;49.07;;;1.10;99.90;;;;;;5116147;28;20205;-49
2023/12/07 03:33:22;;;;;;;137.70;45.53;;;1.10;99.90;;;;;;5116088;28;20188;-49
2023/12/07 03:35:49;;;;;;;142.83;48.77;;;1.10;99.90;;;;;;5115904;28;20182;-49
2023/12/07 03:38:14;;;;;;;139.13;46.10;;;1.10;99.90;;;;;;5115918;28;20196;-49
2023/12/07 03:40:40;;;;;;;146.30;49.13;;;1.10;99.90;;;;;;5116094;28;20973;-49
2023/12/07 03:43:06;;;;;;;140.03;48.27;;;1.10;99.90;;;;;;5115653;28;20492;-49
2023/12/07 03:45:31;;;;;;;147.03;50.10;;;1.10;99.90;;;;;;5115828;28;20196;-49
2023/12/07 03:47:57;;;;;;;143.23;48.70;;;1.10;99.90;;;;;;5115445;28;20653;-49
2023/12/07 03:50:22;;;;;;;156.30;52.37;;;1.10;99.90;;;;;;5115969;28;20184;-49
2023/12/07 03:52:48;;;;;;;126.93;46.67;;;1.10;99.90;;;;;;5115836;28;20201;-49
2023/12/07 03:55:14;;;;;;;138.83;47.43;;;1.10;99.90;;;;;;5115146;28;20708;-50
2023/12/07 03:57:39;;;;;;;149.70;50.40;;;1.10;99.90;;;;;;5115735;28;20185;-49
2023/12/07 04:00:10;;;;;;;134.57;47.10;;;1.10;99.90;;;;;;5115052;28;20226;-49
2023/12/07 04:02:36;;;;;;;134.43;46.60;;;1.10;99.90;;;;;;5115451;28;20188;-49
2023/12/07 04:05:02;;;;;;;156.17;53.10;;;1.10;99.90;;;;;;5114545;28;20617;-49
2023/12/07 04:07:29;;;;;;;137.53;48.63;;;1.10;99.90;;;;;;5114625;28;20182;-49
2023/12/07 04:09:57;;;;;;;140.67;47.17;;;1.10;99.90;;;;;;5115278;28;20475;-50
2023/12/07 04:12:23;;;;;;;129.13;49.07;;;1.10;99.90;;;;;;5115260;28;20441;-49
2023/12/07 04:14:49;;;;;;;133.80;46.67;;;1.10;99.90;;;;;;5115090;28;20420;-49
2023/12/07 04:17:15;;;;;;;142.17;49.50;;;1.10;99.90;;;;;;5114649;28;20416;-49
2023/12/07 04:19:40;;;;;;;138.80;48.87;;;1.10;99.90;;;;;;5115211;28;20414;-49
2023/12/07 04:22:06;;;;;;;132.93;49.93;;;1.10;99.90;;;;;;5114572;28;20251;-49
2023/12/07 04:24:32;;;;;;;130.83;47.97;;;1.10;99.90;;;;;;5114819;28;20208;-49
2023/12/07 04:26:57;;;;;;;135.13;49.93;;;1.10;99.90;;;;;;5115060;28;20930;-49
2023/12/07 04:29:23;;;;;;;144.87;50.87;;;1.10;99.90;;;;;;5115047;28;20192;-49
2023/12/07 04:31:49;;;;;;;141.30;50.03;;;1.10;99.90;;;;;;5114824;28;20173;-49
2023/12/07 04:34:14;;;;;;;135.93;50.23;;;1.10;99.90;;;;;;5114783;28;20277;-49
2023/12/07 04:36:40;;;;;;;139.53;49.57;;;1.20;99.90;;;;;;5114520;28;20189;-49
2023/12/07 04:39:05;;;;;;;133.87;47.47;;;1.20;99.90;;;;;;5114767;28;20169;-49
2023/12/07 04:41:31;;;;;;;129.87;46.80;;;1.20;99.90;;;;;;5114629;28;20211;-49
2023/12/07 04:43:56;;;;;;;116.13;42.83;;;1.20;99.90;;;;;;5114387;28;20555;-49
2023/12/07 04:46:22;;;;;;;127.03;43.73;;;1.20;99.90;;;;;;5114556;28;20215;-49
2023/12/07 04:48:47;;;;;;;120.57;44.40;;;1.20;99.90;;;;;;5114675;28;20181;-49
2023/12/07 04:51:13;;;;;;;116.60;43.37;;;1.20;99.90;;;;;;5114287;28;20687;-49
2023/12/07 04:53:39;;;;;;;118.73;45.33;;;1.20;99.90;;;;;;5114354;28;20263;-49
2023/12/07 04:56:05;;;;;;;125.97;46.83;;;1.20;99.90;;;;;;5113983;28;20185;-49
2023/12/07 04:58:30;;;;;;;126.20;44.23;;;1.20;99.90;;;;;;5114167;28;20192;-49
2023/12/07 05:00:56;;;;;;;116.97;42.87;;;1.20;99.90;;;;;;5114600;28;20411;-49
2023/12/07 05:03:22;;;;;;;120.57;44.77;;;1.20;99.90;;;;;;5114070;28;20661;-49
2023/12/07 05:05:49;;;;;;;120.83;45.50;;;1.20;99.90;;;;;;5113745;28;20232;-49
2023/12/07 05:08:15;;;;;;;124.47;42.43;;;1.10;99.90;;;;;;5113945;28;20425;-49
2023/12/07 05:10:41;;;;;;;110.77;43.33;;;1.20;99.90;;;;;;5114218;28;20512;-49
2023/12/07 05:13:06;;;;;;;111.53;41.70;;;1.10;99.90;;;;;;5113996;28;20176;-49
2023/12/07 05:15:32;;;;;;;105.80;43.03;;;1.10;99.90;;;;;;5113719;28;20200;-49
2023/12/07 05:17:57;;;;;;;105.87;41.10;;;1.20;99.90;;;;;;5113919;28;20181;-50
2023/12/07 05:20:24;;;;;;;115.07;42.60;;;1.20;99.90;;;;;;5113869;28;20173;-49
2023/12/07 05:22:50;;;;;;;110.90;41.07;;;1.30;99.90;;;;;;5113944;28;20179;-49
2023/12/07 05:25:15;;;;;;;109.10;42.40;;;1.20;99.90;;;;;;5114013;28;20975;-49
2023/12/07 05:27:41;;;;;;;111.40;42.83;;;1.30;99.90;;;;;;5113792;28;20183;-49
2023/12/07 05:30:07;;;;;;;124.30;44.73;;;1.20;99.90;;;;;;5114116;28;20173;-49
2023/12/07 05:32:33;;;;;;;111.17;42.80;;;1.20;99.90;;;;;;5114011;28;20181;-49
2023/12/07 05:34:58;;;;;;;110.67;42.13;;;1.20;99.90;;;;;;5114014;28;20583;-49
2023/12/07 05:37:24;;;;;;;103.80;41.90;;;1.20;99.90;;;;;;5113768;28;20324;-49
2023/12/07 05:39:50;;;;;;;103.90;42.27;;;1.20;99.90;;;;;;5113455;28;20547;-49
2023/12/07 05:42:15;;;;;;;100.40;41.93;;;1.20;99.90;;;;;;5113661;28;20176;-49
2023/12/07 05:44:41;;;;;;;112.50;44.23;;;1.20;99.90;;;;;;5113400;28;20548;-49
2023/12/07 05:47:07;;;;;;;118.17;45.07;;;1.20;99.90;;;;;;5113709;28;20188;-49
2023/12/07 05:49:33;;;;;;;97.40;42.20;;;1.20;99.90;;;;;;5113937;28;20181;-49
2023/12/07 05:51:59;;;;;;;93.37;42.10;;;1.20;99.90;;;;;;5113619;28;20412;-49
2023/12/07 05:54:24;;;;;;;110.90;43.00;;;1.20;99.90;;;;;;5113301;28;20188;-49
2023/12/07 05:56:50;;;;;;;124.93;45.60;;;1.20;99.90;;;;;;5113878;28;20187;-49
2023/12/07 05:59:15;;;;;;;107.97;42.80;;;1.20;99.90;;;;;;5113193;28;20181;-49
2023/12/07 06:01:41;;;;;;;110.07;43.93;;;1.20;99.90;;;;;;5113589;28;20180;-49
2023/12/07 06:04:10;;;;;;;117.20;44.80;;;1.10;99.90;;;;;;5113523;28;20643;-49
2023/12/07 06:06:35;;;;;;;107.20;44.63;;;1.10;99.90;;;;;;5113419;28;20251;-49
2023/12/07 06:09:01;;;;;;;113.13;46.37;;;1.10;99.90;;;;;;5113636;28;20912;-49
2023/12/07 06:11:27;;;;;;;104.40;44.43;;;1.10;99.90;;;;;;5113492;28;20221;-49
2023/12/07 06:13:52;;;;;;;104.53;42.23;;;1.10;99.90;;;;;;5113409;28;20224;-49
2023/12/07 06:16:18;;;;;;;120.87;46.07;;;1.10;99.90;;;;;;5113461;28;20181;-49
2023/12/07 06:18:44;;;;;;;112.13;45.83;;;1.20;99.90;;;;;;5113586;28;20531;-49
2023/12/07 06:21:09;;;;;;;114.10;44.70;;;1.20;99.90;;;;;;5113577;28;20793;-49
2023/12/07 06:23:35;;;;;;;115.10;46.60;;;1.20;99.90;;;;;;5112984;28;20208;-49
2023/12/07 06:26:01;;;;;;;107.90;44.73;;;1.20;99.90;;;;;;5113115;28;20669;-49
2023/12/07 06:28:27;;;;;;;115.47;46.83;;;1.10;99.90;;;;;;5113297;28;20641;-49
2023/12/07 06:30:53;;;;;;;102.50;43.10;;;1.10;99.90;;;;;;5114750;28;20412;-49
2023/12/07 06:33:18;;;;;;;105.87;45.73;;;1.20;99.90;;;;;;5117047;28;20213;-49
2023/12/07 06:35:46;;;;;;;109.87;47.40;;;1.10;99.90;;;;;;5116724;28;20180;-49
2023/12/07 06:38:12;;;;;;;104.20;44.60;;;1.10;99.90;;;;;;5116851;28;20726;-49
2023/12/07 06:40:37;;;;;;;95.10;42.00;;;1.10;99.90;;;;;;5116967;28;20415;-49
2023/12/07 06:43:03;;;;;;;95.30;43.37;;;1.10;99.90;;;;;;5116825;28;20177;-50
2023/12/07 06:45:28;;;;;;;105.73;45.20;;;1.20;99.90;;;;;;5116629;28;20172;-50
2023/12/07 06:47:54;;;;;;;106.53;45.50;;;1.10;99.90;;;;;;5117325;28;20199;-50
2023/12/07 06:50:19;;;;;;;106.20;45.27;;;1.10;99.90;;;;;;5117387;28;20193;-50
2023/12/07 06:52:45;;;;;;;109.93;45.53;;;1.10;99.90;;;;;;5116720;28;20188;-50
2023/12/07 06:55:10;;;;;;;111.20;45.17;;;1.10;99.90;;;;;;5116930;28;20699;-50
2023/12/07 06:57:36;;;;;;;112.97;46.70;;;1.10;99.90;;;;;;5116286;28;20658;-50
2023/12/07 07:00:05;;;;;;;115.33;45.80;;;1.10;99.90;;;;;;5116312;28;20222;-50
2023/12/07 07:02:31;;;;;;;116.33;45.83;;;1.20;99.90;;;;;;5116656;28;20184;-50
2023/12/07 07:04:57;;;;;;;107.93;44.80;;;1.20;99.90;;;;;;5116438;28;20462;-50
2023/12/07 07:07:22;;;;;;;107.10;44.50;;;1.20;99.90;;;;;;5116959;28;20172;-50
2023/12/07 07:09:48;;;;;;;106.20;44.77;;;1.20;99.90;;;;;;5116751;28;20230;-50
2023/12/07 07:12:13;;;;;;;105.50;45.60;;;1.20;99.90;;;;;;5116272;28;20227;-50
2023/12/07 07:14:40;;;;;;;111.40;43.23;;;1.20;99.90;;;;;;5116169;28;20257;-50
2023/12/07 07:17:05;;;;;;;104.37;46.07;;;1.20;99.90;;;;;;5116276;28;20181;-50
2023/12/07 07:19:31;;;;;;;128.60;50.77;;;1.30;99.90;;;;;;5116415;28;20453;-50
2023/12/07 07:21:57;;;;;;;124.10;51.77;;;1.30;99.90;;;;;;5116282;28;20183;-50
2023/12/07 07:24:22;;;;;;;126.57;51.30;;;1.40;99.90;;;;;;5116196;28;20231;-50
2023/12/07 07:26:48;;;;;;;128.83;51.90;;;1.30;99.90;;;;;;5115841;28;20185;-50
2023/12/07 07:29:13;;;;;;;130.40;50.13;;;1.40;99.90;;;;;;5115965;28;20239;-49
2023/12/07 07:31:39;;;;;;;114.70;48.30;;;1.30;99.90;;;;;;5115890;28;20181;-50
2023/12/07 07:34:05;;;;;;;123.57;49.43;;;1.30;99.90;;;;;;5115953;28;20181;-50
2023/12/07 07:36:32;;;;;;;112.97;47.30;;;1.30;99.90;;;;;;5116261;28;20407;-50
2023/12/07 07:38:57;;;;;;;115.03;48.67;;;1.40;99.90;;;;;;5115812;28;20463;-50
2023/12/07 07:41:23;;;;;;;120.20;48.63;;;1.40;99.90;;;;;;5115859;28;20759;-50
2023/12/07 07:43:50;;;;;;;119.87;50.30;;;1.40;99.90;;;;;;5114893;28;20256;-50
2023/12/07 07:46:16;;;;;;;117.20;47.30;;;1.40;99.90;;;;;;5115625;28;20658;-50
2023/12/07 07:48:41;;;;;;;106.30;43.93;;;1.40;99.90;;;;;;5115342;28;20492;-49
2023/12/07 07:51:07;;;;;;;108.60;46.03;;;1.50;99.90;;;;;;5116183;28;20642;-49
2023/12/07 07:53:32;;;;;;;109.77;44.90;;;1.60;99.90;;;;;;5116218;28;20179;-50
2023/12/07 07:55:58;;;;;;;107.87;46.63;;;1.50;99.90;;;;;;5115685;28;20180;-50
2023/12/07 07:58:23;;;;;;;95.50;43.43;;;1.50;99.90;;;;;;5115760;28;20179;-49
2023/12/07 08:00:49;;;;;;;119.23;46.80;;;1.50;99.90;;;;;;5115617;28;20221;-49
2023/12/07 08:03:15;;;;;;;101.37;45.07;;;1.50;99.90;;;;;;5115839;28;20216;-49
2023/12/07 08:05:41;;;;;;;112.13;46.87;;;1.60;99.90;;;;;;5115505;28;20852;-50
2023/12/07 08:08:07;;;;;;;115.63;47.33;;;1.50;99.90;;;;;;5115869;28;20669;-49
2023/12/07 08:10:33;;;;;;;97.37;43.43;;;1.50;99.90;;;;;;5115567;28;20271;-50
2023/12/07 08:12:58;;;;;;;98.77;41.33;;;1.50;99.90;;;;;;5115835;28;20439;-49
2023/12/07 08:15:24;;;;;;;104.70;43.83;;;1.50;99.90;;;;;;5115581;28;20169;-50
2023/12/07 08:17:50;;;;;;;111.87;47.90;;;1.60;99.90;;;;;;5115487;28;20231;-50
2023/12/07 08:20:16;;;;;;;118.57;46.97;;;1.60;99.90;;;;;;5114955;28;20447;-50
2023/12/07 08:22:42;;;;;;;104.80;44.10;;;1.60;99.90;;;;;;5114704;28;20181;-49
2023/12/07 08:25:09;;;;;;;105.37;43.43;;;1.70;99.90;;;;;;5115303;28;20290;-51
2023/12/07 08:27:36;;;;;;;106.13;45.40;;;1.80;99.90;;;;;;5115421;28;20242;-50
2023/12/07 08:30:02;;;;;;;118.32;52.58;;;1.80;99.90;;;;;;5114143;28;20448;-50
2023/12/07 08:32:29;;;;;;;105.33;46.20;;;1.90;99.90;;;;;;5115155;28;20184;-50
2023/12/07 08:34:54;;;;;;;108.43;48.00;;;1.90;99.90;;;;;;5115277;28;20421;-50
2023/12/07 08:37:20;;;;;;;100.83;43.87;;;1.90;99.90;;;;;;5115001;28;20418;-50
2023/12/07 08:39:45;;;;;;;97.17;43.60;;;1.90;99.90;;;;;;5114907;28;20641;-50
2023/12/07 08:42:11;;;;;;;101.47;44.03;;;1.90;99.90;;;;;;5114664;28;20184;-50
2023/12/07 08:44:37;;;;;;;97.63;42.33;;;2.00;99.90;;;;;;5114822;28;20208;-50
2023/12/07 08:47:03;;;;;;;107.57;45.00;;;2.00;99.90;;;;;;5114924;28;20740;-51
2023/12/07 08:49:29;;;;;;;98.53;43.53;;;2.10;99.90;;;;;;5113785;28;20473;-54
2023/12/07 08:51:55;;;;;;;100.47;42.30;;;2.20;99.90;;;;;;5111448;28;20491;-51
2023/12/07 08:54:21;;;;;;;92.23;41.90;;;2.20;99.90;;;;;;5113856;28;20208;-51
2023/12/07 08:56:47;;;;;;;96.23;43.13;;;2.40;99.90;;;;;;5114400;28;20439;-50
2023/12/07 08:59:12;;;;;;;99.40;42.70;;;2.50;99.90;;;;;;5114601;28;20174;-50
2023/12/07 09:01:38;;;;;;;90.00;40.23;;;2.60;99.90;;;;;;5114386;28;20266;-50
2023/12/07 09:04:05;;;;;;;104.37;44.07;;;2.70;99.90;;;;;;5114298;28;20568;-50
2023/12/07 09:06:31;;;;;;;82.93;39.13;;;2.90;99.90;;;;;;5114683;28;20225;-50
2023/12/07 09:08:56;;;;;;;104.57;44.37;;;2.90;99.90;;;;;;5113712;28;20425;-50
2023/12/07 09:11:22;;;;;;;90.13;41.40;;;3.00;99.90;;;;;;5094539;28;20264;-50
2023/12/07 09:13:48;;;;;;;88.20;41.30;;;3.10;99.90;;;;;;5113949;28;20265;-51
2023/12/07 09:16:14;;;;;;;87.13;41.00;;;3.20;99.90;;;;;;5114241;28;20522;-51
2023/12/07 09:18:41;;;;;;;97.07;43.90;;;3.20;99.90;;;;;;5113911;28;20717;-50
2023/12/07 09:21:07;;;;;;;82.33;39.37;;;3.30;99.90;;;;;;5114092;28;20432;-50
2023/12/07 09:23:34;;;;;;;88.43;40.90;;;3.30;99.90;;;;;;5114230;28;20466;-50
2023/12/07 09:26:00;;;;;;;91.37;42.50;;;3.40;99.90;;;;;;5113984;28;20506;-51
2023/12/07 09:28:25;;;;;;;82.40;40.67;;;3.50;99.90;;;;;;5114129;28;20455;-51
2023/12/07 09:30:51;;;;;;;80.43;40.10;;;3.60;99.90;;;;;;5114138;28;20180;-51
2023/12/07 09:33:17;;;;;;;81.63;41.40;;;3.60;99.90;;;;;;5114045;28;20241;-51
2023/12/07 09:35:42;;;;;;;87.47;41.23;;;3.70;99.90;;;;;;5113710;28;20196;-51
2023/12/07 09:38:09;;;;;;;87.57;40.83;;;3.60;1.00;;;;;;5113810;28;20173;-51
2023/12/07 09:40:35;;;;;;;87.73;41.90;;;3.50;99.90;;;;;;5114158;28;20564;-50
2023/12/07 09:43:00;;;;;;;96.80;41.30;;;3.20;99.90;;;;;;5114095;28;20507;-50
2023/12/07 09:45:26;;;;;;;93.37;41.23;;;2.90;99.90;;;;;;5113948;28;20180;-50
2023/12/07 09:47:53;;;;;;;86.50;39.87;;;2.70;99.90;;;;;;5114187;28;20200;-50
2023/12/07 09:50:23;;;;;;;92.77;41.70;;;2.60;74.80;;;;;;5113883;28;20644;-50
2023/12/07 09:52:50;;;;;;;93.30;42.03;;;2.50;99.90;;;;;;5113884;28;20414;-50
2023/12/07 09:55:17;;;;;;;115.90;43.20;;;2.40;99.90;;;;;;5113966;28;20410;-50
2023/12/07 09:57:43;;;;;;;118.17;41.10;;;2.30;99.90;;;;;;5113898;28;20454;-50
2023/12/07 10:00:14;;;;;;;98.30;41.80;;;2.30;1.00;;;;;;5113895;28;20462;-51
2023/12/07 10:02:43;;;;;;;264.33;44.37;;;2.30;1.00;;;;;;5113906;28;20239;-50
2023/12/07 10:05:13;;;;;;;134.70;41.40;;;2.30;1.00;;;;;;5113495;28;20502;-51
2023/12/07 10:07:40;;;;;;;135.37;42.50;;;2.30;1.00;;;;;;5117797;28;20445;-50
2023/12/07 10:10:06;;;;;;;123.00;41.47;;;2.30;99.90;;;;;;5117704;28;20442;-50
2023/12/07 10:12:35;;;;;;;148.30;41.43;;;2.20;1.00;;;;;;5117712;28;20415;-50
2023/12/07 10:15:11;;;;;;;205.37;43.40;;;2.20;1.00;;;;;;5117973;28;20425;-49
2023/12/07 10:17:50;;;;;;;97.40;42.80;;;2.10;1.00;;;;;;5117891;28;20400;-50
2023/12/07 10:20:23;;;;;;;122.07;43.10;;;2.10;1.00;;;;;;5117690;28;20796;-50
2023/12/07 10:23:10;;;;;;;227.67;43.17;;;2.20;1.00;;;;;;5117356;28;20459;-51
2023/12/07 10:25:41;;;;;;;104.93;41.23;;;2.20;1.00;;;;;;5117726;28;20426;-50
2023/12/07 10:28:08;;;;;;;89.43;39.03;;;2.10;1.00;;;;;;5117331;28;20422;-51
2023/12/07 10:30:34;;;;;;;97.13;39.27;;;2.30;1.00;;;;;;5117423;28;20421;-51
2023/12/07 10:33:02;;;;;;;87.93;39.83;;;2.30;1.00;;;;;;5117343;28;20419;-50
2023/12/07 10:35:29;;;;;;;112.60;39.50;;;2.30;1.00;;;;;;5117423;28;20445;-51
2023/12/07 10:37:54;;;;;;;91.03;38.53;;;2.30;1.00;;;;;;5117196;28;20857;-51
2023/12/07 10:40:20;;;;;;;91.90;37.27;;;2.30;1.00;;;;;;5117361;28;20445;-50
2023/12/07 10:42:48;;;;;;;87.40;38.83;;;2.20;1.00;;;;;;5117129;28;20546;-50
2023/12/07 10:45:15;;;;;;;82.30;36.90;;;2.20;1.00;;;;;;5116700;28;20454;-50
2023/12/07 10:47:43;;;;;;;78.20;36.50;;;2.20;1.00;;;;;;5117187;28;20907;-51
2023/12/07 10:50:10;;;;;;;78.80;37.33;;;2.30;1.00;;;;;;5117287;28;20756;-50
2023/12/07 10:52:39;;;;;;;78.53;35.67;;;2.30;1.00;;;;;;5117240;28;20412;-50
2023/12/07 10:55:16;;;;;;;93.10;39.77;;;2.40;11.60;;;;;;5117063;28;20421;-50
2023/12/07 10:57:43;;;;;;;85.43;36.97;;;2.40;1.00;;;;;;5117215;28;20431;-50
2023/12/07 11:00:10;;;;;;;78.50;37.97;;;2.40;1.00;;;;;;5116807;28;20426;-51
2023/12/07 11:02:37;;;;;;;92.67;37.27;;;2.30;1.00;;;;;;5116349;28;20410;-51
2023/12/07 11:05:06;;;;;;;91.63;39.17;;;2.30;1.00;;;;;;5115810;28;20498;-51
2023/12/07 11:07:57;;;;;;;82.10;37.97;;;2.40;1.00;;;;;;5116011;28;20420;-51
2023/12/07 11:10:33;;;;;;;83.03;37.37;;;2.40;1.00;;;;;;5116613;28;20555;-51
2023/12/07 11:13:16;;;;;;;73.00;35.43;;;2.40;1.00;;;;;;5115710;28;21114;-51
2023/12/07 11:15:42;;;;;;;76.10;36.27;;;2.50;6.40;;;;;;5116671;28;20417;-51
2023/12/07 11:18:07;;;;;;;78.57;37.00;;;2.50;1.00;;;;;;5116048;28;20415;-51
2023/12/07 11:20:44;;;;;;;75.67;36.20;;;2.60;8.30;;;;;;5116579;28;20173;-50
2023/12/07 11:23:10;;;;;;;65.00;32.97;;;2.60;1.00;;;;;;5116638;28;20174;-51
2023/12/07 11:25:36;;;;;;;67.60;33.07;;;2.70;14.50;;;;;;5116292;28;20414;-50
2023/12/07 11:28:07;;;;;;;77.60;35.90;;;2.80;5.80;;;;;;5116394;28;20181;-50
2023/12/07 11:30:36;;;;;;;66.83;34.37;;;2.80;1.00;;;;;;5116514;28;20769;-51
2023/12/07 11:33:04;;;;;;;71.70;33.10;;;2.80;1.00;;;;;;5116256;28;20419;-51
2023/12/07 11:35:30;;;;;;;64.97;33.60;;;2.80;1.00;;;;;;5116079;28;20422;-51
2023/12/07 11:38:03;;;;;;;65.50;33.80;;;2.70;1.00;;;;;;5115883;28;20925;-51
2023/12/07 11:40:36;;;;;;;65.00;33.23;;;2.70;1.00;;;;;;5116146;28;20177;-50
2023/12/07 11:43:05;;;;;;;66.10;33.03;;;2.70;1.00;;;;;;5115951;28;20940;-51
2023/12/07 11:45:41;;;;;;;65.67;32.00;;;2.70;1.00;;;;;;5115949;28;20422;-51
2023/12/07 11:48:08;;;;;;;61.10;31.73;;;2.70;1.00;;;;;;5116142;28;20420;-51
2023/12/07 11:50:34;;;;;;;69.87;31.70;;;2.70;1.00;;;;;;5116055;28;20471;-51
2023/12/07 11:52:59;;;;;;;64.50;30.50;;;2.70;1.00;;;;;;5115553;28;20422;-51
2023/12/07 11:55:25;;;;;;;59.37;30.30;;;2.80;1.00;;;;;;5115774;28;20191;-51
2023/12/07 11:57:51;;;;;;;63.60;32.67;;;2.70;1.00;;;;;;5115511;28;20180;-51
2023/12/07 12:00:17;;;;;;;58.77;30.50;;;2.80;99.90;;;;;;5116098;28;20184;-51
2023/12/07 12:02:42;;;;;;;69.53;31.53;;;2.70;99.90;;;;;;5115460;28;20222;-51
2023/12/07 12:05:09;;;;;;;62.27;30.77;;;2.80;99.90;;;;;;5114933;28;20584;-50
2023/12/07 12:07:35;;;;;;;61.60;31.03;;;2.80;99.90;;;;;;5115767;28;20176;-52
2023/12/07 12:10:04;;;;;;;64.07;30.23;;;2.80;1.00;;;;;;5115123;28;20422;-51
2023/12/07 12:12:32;;;;;;;58.73;29.60;;;2.90;1.00;;;;;;5115191;28;20207;-51
2023/12/07 12:14:58;;;;;;;61.83;29.33;;;3.00;1.00;;;;;;5115568;28;20430;-51
2023/12/07 12:17:24;;;;;;;55.43;29.50;;;3.00;1.00;;;;;;5115345;28;20423;-51
2023/12/07 12:19:54;;;;;;;56.03;28.20;;;2.90;99.90;;;;;;5115728;28;20187;-51
2023/12/07 12:22:20;;;;;;;56.13;29.70;;;2.90;99.90;;;;;;5115050;28;20867;-51
2023/12/07 12:24:46;;;;;;;58.97;30.20;;;3.00;1.00;;;;;;5115128;28;20947;-51
2023/12/07 12:27:14;;;;;;;62.73;31.90;;;3.00;1.00;;;;;;5115155;28;20410;-50